Terminal Aerodrome Forecast
Issued by NWS

Home | Current Version | Previous Version | Text Only | Print | Product List | Glossary Off
Versions: 1 2 3 4 5 6 7 8 9 10 11 12 13 14

000
FTUS43 KIWX 212300 RRA
TAFSBN
TAF
KSBN 212339Z 2200/2224 23006KT P6SM SCT100
     FM220900 32006KT P6SM BKN080
     FM221200 02008KT P6SM SCT080
     FM221600 33010KT P6SM FEW050=

USA.gov is the U.S. government's official web portal to all federal, state and local government web resources and services.